Nearby METAR Reports

 

KPMP - Pompano Beach, Florida, USA
Distance from station: NNW 3mi, 5km
Updated: 04/19/2024 11:53pm
Clear
Clear
 Wind from S
Wind: S 7 mph , 11 km/h
Temperature: 75°F , 24°C
Dew Point: 64°F , 18°C
Humidity: 69%
Barometer: 30.09 inHg , 1019 hPa
Clouds: Clear
Visibility: 10 miles , 16 km
2024/04/20 03:53 KPMP 200353Z 17006KT 10SM CLR 24/18 A3009 RMK AO2 SLP191 T02440178
KFXE - Ft Lauderd/Exec, Florida, USA
Distance from station: W 6mi, 9km
Updated: 04/19/2024 11:53pm
Clear
Clear
 Wind from S
Wind: S 7 mph , 11 km/h
Temperature: 75°F , 24°C
Dew Point: 66°F , 19°C
Humidity: 74%
Barometer: 30.09 inHg , 1019 hPa
Clouds: Clear
Visibility: 10 miles , 16 km
2024/04/20 03:53 KFXE 200353Z 18006KT 10SM CLR 24/19 A3009 RMK AO2 SLP190 T02440194
 
KFLL - Ft Lauderd/Holly, Florida, USA
Distance from station: SSW 11mi, 17km
Updated: 04/19/2024 11:53pm
Clear
Clear
 Wind from S
Wind: S 5 mph , 7 km/h
Temperature: 79°F , 26°C
Dew Point: 66°F , 19°C
Humidity: 65%
Barometer: 30.08 inHg , 1018.6 hPa
Clouds: Clear
Visibility: 10 miles , 16 km
2024/04/20 03:53 KFLL 200353Z 17004KT 10SM CLR 26/19 A3008 RMK AO2 SLP186 T02610189
KBCT - Boca Raton, Florida, USA
Distance from station: N 12mi, 19km
Updated: 04/19/2024 9:53pm
NOT Current
Few Clouds
Few Clouds
 Wind from SE
Wind: SE 9 mph , 15 km/h
Temperature: 75°F , 24°C
Dew Point: 66°F , 19°C
Humidity: 74%
Barometer: 30.08 inHg , 1018.6 hPa
Clouds: Few Clouds
Visibility: 10 miles , 16 km
Cloud details: Few Clouds 4500 ft
2024/04/20 01:53 KBCT 200153Z 14008KT 10SM FEW045 24/19 A3008
 
KHWO - Hollywood, Florida, USA
Distance from station: SSW 17mi, 27km
Updated: 04/19/2024 9:53pm
NOT Current
Clear
Clear
 Wind from SSE
Wind: SSE 8 mph , 13 km/h
Temperature: 79°F , 26°C
Dew Point: 66°F , 19°C
Humidity: 65%
Barometer: 30.08 inHg , 1018.6 hPa
Clouds: Clear
Visibility: 10 miles , 16 km
2024/04/20 01:53 KHWO 200153Z 15007KT 10SM CLR 26/19 A3008 RMK AO2 SLP187 T02560194 $
KOPF - Miami/Opa Locka, Florida, USA
Distance from station: SSW 24mi, 38km
Updated: 04/19/2024 11:53pm
Clear
Clear
 Wind from calm
Wind: Calm
Temperature: 75°F , 24°C
Dew Point: 64°F , 18°C
Humidity: 69%
Barometer: 30.10 inHg , 1019.3 hPa
Clouds: Clear
Visibility: 10 miles , 16 km
2024/04/20 03:53 KOPF 200353Z AUTO 00000KT 10SM CLR 24/18 A3010 RMK AO2 SLP193 T02390183 $
 
KMIA - Miami, Florida, USA
Distance from station: SSW 31mi, 50km
Updated: 04/19/2024 11:53pm
Clear
Clear
 Wind from SE
Wind: SE 3 mph , 6 km/h
Temperature: 75°F , 24°C
Dew Point: 66°F , 19°C
Humidity: 74%
Barometer: 30.10 inHg , 1019.3 hPa
Clouds: Clear
Visibility: 10 miles , 16 km
2024/04/20 03:53 KMIA 200353Z 14003KT 10SM CLR 24/19 A3010 RMK AO2 SLP191 T02390189 $
KPBI - West Palm Beach, Florida, USA
Distance from station: N 33mi, 52km
Updated: 04/19/2024 11:53pm
Clear
Clear
 Wind from S
Wind: S 6 mph , 9 km/h
Temperature: 75°F , 24°C
Dew Point: 66°F , 19°C
Humidity: 74%
Barometer: 30.09 inHg , 1019 hPa
Clouds: Clear
Visibility: 10 miles , 16 km
2024/04/20 03:53 KPBI 200353Z 19005KT 10SM CLR 24/19 A3009 RMK AO2 SLP190 T02440189
 
KTMB - Miami/Tamiami, Florida, USA
Distance from station: SSW 44mi, 71km
Updated: 04/19/2024 11:53pm
Clear
Clear
 Wind from calm
Wind: Calm
Temperature: 70°F , 21°C
Dew Point: 66°F , 19°C
Humidity: 88%
Barometer: 30.10 inHg , 1019.3 hPa
Clouds: Clear
Visibility: 10 miles , 16 km
2024/04/20 03:53 KTMB 200353Z 00000KT 10SM CLR 21/19 A3010 RMK AO2 SLP191 T02060189 $